sensor_id;sensor_type;location;lat;lon;timestamp;temperature;humidity
23477;DHT22;11911;50.768;13.150;2022-07-23T04:00:20;15.00;96.30
23477;DHT22;11911;50.768;13.150;2022-07-23T04:02:45;15.00;96.30
23477;DHT22;11911;50.768;13.150;2022-07-23T04:05:11;15.10;96.30
23477;DHT22;11911;50.768;13.150;2022-07-23T04:07:36;15.10;96.30
23477;DHT22;11911;50.768;13.150;2022-07-23T04:10:02;15.30;96.30
23477;DHT22;11911;50.768;13.150;2022-07-23T04:12:28;15.50;96.30
23477;DHT22;11911;50.768;13.150;2022-07-23T04:14:53;15.60;96.30
23477;DHT22;11911;50.768;13.150;2022-07-23T04:17:21;15.70;96.30
23477;DHT22;11911;50.768;13.150;2022-07-23T04:19:47;15.70;96.30
23477;DHT22;11911;50.768;13.150;2022-07-23T04:22:12;15.80;96.30
23477;DHT22;11911;50.768;13.150;2022-07-23T04:24:38;15.90;96.30
23477;DHT22;11911;50.768;13.150;2022-07-23T04:27:04;16.00;96.30
23477;DHT22;11911;50.768;13.150;2022-07-23T04:29:29;16.30;96.30
23477;DHT22;11911;50.768;13.150;2022-07-23T04:31:55;16.50;96.30
23477;DHT22;11911;50.768;13.150;2022-07-23T04:34:20;16.60;96.30
23477;DHT22;11911;50.768;13.150;2022-07-23T04:36:46;16.60;96.30
23477;DHT22;11911;50.768;13.150;2022-07-23T04:39:11;16.50;96.30
23477;DHT22;11911;50.768;13.150;2022-07-23T04:41:37;16.50;96.30
23477;DHT22;11911;50.768;13.150;2022-07-23T04:44:03;16.50;96.30
23477;DHT22;11911;50.768;13.150;2022-07-23T04:46:28;16.40;96.30
23477;DHT22;11911;50.768;13.150;2022-07-23T04:48:54;16.40;96.30
23477;DHT22;11911;50.768;13.150;2022-07-23T04:51:20;16.50;96.30
23477;DHT22;11911;50.768;13.150;2022-07-23T04:53:45;16.50;96.30
23477;DHT22;11911;50.768;13.150;2022-07-23T04:56:11;16.50;96.30
23477;DHT22;11911;50.768;13.150;2022-07-23T04:58:36;16.50;96.30
23477;DHT22;11911;50.768;13.150;2022-07-23T05:01:02;16.50;96.30
23477;DHT22;11911;50.768;13.150;2022-07-23T05:03:28;16.60;96.30
23477;DHT22;11911;50.768;13.150;2022-07-23T05:05:53;16.60;96.30
23477;DHT22;11911;50.768;13.150;2022-07-23T05:08:19;16.70;96.30
23477;DHT22;11911;50.768;13.150;2022-07-23T05:10:44;16.80;96.30
23477;DHT22;11911;50.768;13.150;2022-07-23T05:13:10;16.80;96.30
23477;DHT22;11911;50.768;13.150;2022-07-23T05:15:35;16.80;96.30
23477;DHT22;11911;50.768;13.150;2022-07-23T05:18:01;16.80;96.30
23477;DHT22;11911;50.768;13.150;2022-07-23T05:20:26;16.70;96.30
23477;DHT22;11911;50.768;13.150;2022-07-23T05:22:52;16.60;96.30
23477;DHT22;11911;50.768;13.150;2022-07-23T05:25:18;16.40;96.30
23477;DHT22;11911;50.768;13.150;2022-07-23T05:27:43;16.30;96.30
23477;DHT22;11911;50.768;13.150;2022-07-23T05:30:09;16.30;96.30
23477;DHT22;11911;50.768;13.150;2022-07-23T05:32:35;16.20;96.30
23477;DHT22;11911;50.768;13.150;2022-07-23T05:35:03;16.10;96.30
23477;DHT22;11911;50.768;13.150;2022-07-23T05:37:29;16.10;96.30
23477;DHT22;11911;50.768;13.150;2022-07-23T05:39:55;16.10;96.30
23477;DHT22;11911;50.768;13.150;2022-07-23T05:42:20;16.10;96.30
23477;DHT22;11911;50.768;13.150;2022-07-23T05:44:46;16.10;96.30
23477;DHT22;11911;50.768;13.150;2022-07-23T05:47:11;16.10;96.30
23477;DHT22;11911;50.768;13.150;2022-07-23T05:49:37;16.10;96.30
23477;DHT22;11911;50.768;13.150;2022-07-23T05:52:05;16.10;96.30
23477;DHT22;11911;50.768;13.150;2022-07-23T05:54:31;16.20;96.30
23477;DHT22;11911;50.768;13.150;2022-07-23T05:56:58;16.20;96.30
23477;DHT22;11911;50.768;13.150;2022-07-23T05:59:24;16.20;96.30
23477;DHT22;11911;50.768;13.150;2022-07-23T06:01:49;16.20;96.30
23477;DHT22;11911;50.768;13.150;2022-07-23T06:04:15;16.30;96.30
23477;DHT22;11911;50.768;13.150;2022-07-23T06:06:40;16.20;96.30
23477;DHT22;11911;50.768;13.150;2022-07-23T06:09:06;16.30;96.30
23477;DHT22;11911;50.768;13.150;2022-07-23T06:11:31;16.40;96.30
23477;DHT22;11911;50.768;13.150;2022-07-23T06:13:57;16.40;96.30
23477;DHT22;11911;50.768;13.150;2022-07-23T06:16:22;16.50;96.30
23477;DHT22;11911;50.768;13.150;2022-07-23T06:18:48;16.60;96.30
23477;DHT22;11911;50.768;13.150;2022-07-23T06:21:13;16.70;96.30
23477;DHT22;11911;50.768;13.150;2022-07-23T06:23:39;16.70;96.30
23477;DHT22;11911;50.768;13.150;2022-07-23T06:26:04;16.70;96.30
23477;DHT22;11911;50.768;13.150;2022-07-23T06:28:30;16.70;96.30
23477;DHT22;11911;50.768;13.150;2022-07-23T06:30:55;16.70;96.30
23477;DHT22;11911;50.768;13.150;2022-07-23T06:33:21;16.80;96.30
23477;DHT22;11911;50.768;13.150;2022-07-23T06:35:46;16.80;96.30
23477;DHT22;11911;50.768;13.150;2022-07-23T06:38:12;16.90;96.30
23477;DHT22;11911;50.768;13.150;2022-07-23T06:40:38;16.90;96.30
23477;DHT22;11911;50.768;13.150;2022-07-23T06:43:03;17.00;96.30
23477;DHT22;11911;50.768;13.150;2022-07-23T06:45:29;17.00;96.30
23477;DHT22;11911;50.768;13.150;2022-07-23T06:47:54;17.20;96.30
23477;DHT22;11911;50.768;13.150;2022-07-23T06:50:20;17.40;96.30
23477;DHT22;11911;50.768;13.150;2022-07-23T06:52:46;17.40;96.30
23477;DHT22;11911;50.768;13.150;2022-07-23T06:55:11;17.30;96.30
23477;DHT22;11911;50.768;13.150;2022-07-23T06:57:37;17.50;96.30
23477;DHT22;11911;50.768;13.150;2022-07-23T07:00:04;17.60;96.30
23477;DHT22;11911;50.768;13.150;2022-07-23T07:02:30;17.60;96.30
23477;DHT22;11911;50.768;13.150;2022-07-23T07:04:55;17.70;96.30
23477;DHT22;11911;50.768;13.150;2022-07-23T07:07:21;17.70;96.30
23477;DHT22;11911;50.768;13.150;2022-07-23T07:09:47;17.80;96.30
23477;DHT22;11911;50.768;13.150;2022-07-23T07:12:12;17.90;96.30
23477;DHT22;11911;50.768;13.150;2022-07-23T07:14:38;17.60;96.30
23477;DHT22;11911;50.768;13.150;2022-07-23T07:17:03;17.40;96.30
23477;DHT22;11911;50.768;13.150;2022-07-23T07:19:29;17.30;96.30
23477;DHT22;11911;50.768;13.150;2022-07-23T07:21:54;17.60;96.30
23477;DHT22;11911;50.768;13.150;2022-07-23T07:24:20;18.00;96.30
23477;DHT22;11911;50.768;13.150;2022-07-23T07:26:45;18.40;96.30
23477;DHT22;11911;50.768;13.150;2022-07-23T07:29:11;18.60;96.30
23477;DHT22;11911;50.768;13.150;2022-07-23T07:31:36;18.90;96.30
23477;DHT22;11911;50.768;13.150;2022-07-23T07:34:02;18.90;96.30
23477;DHT22;11911;50.768;13.150;2022-07-23T07:36:28;19.40;96.30
23477;DHT22;11911;50.768;13.150;2022-07-23T07:38:54;19.80;96.30
23477;DHT22;11911;50.768;13.150;2022-07-23T07:41:19;19.60;96.30
23477;DHT22;11911;50.768;13.150;2022-07-23T07:43:49;20.10;96.30
23477;DHT22;11911;50.768;13.150;2022-07-23T07:46:15;20.30;96.30
23477;DHT22;11911;50.768;13.150;2022-07-23T07:48:41;19.80;96.30
23477;DHT22;11911;50.768;13.150;2022-07-23T07:51:06;20.30;96.30
23477;DHT22;11911;50.768;13.150;2022-07-23T07:53:32;20.90;96.30
23477;DHT22;11911;50.768;13.150;2022-07-23T07:55:58;20.70;96.30
23477;DHT22;11911;50.768;13.150;2022-07-23T07:58:23;21.10;96.30
23477;DHT22;11911;50.768;13.150;2022-07-23T08:00:49;21.10;96.30
23477;DHT22;11911;50.768;13.150;2022-07-23T08:03:14;21.30;96.30
23477;DHT22;11911;50.768;13.150;2022-07-23T08:05:40;21.20;96.30
23477;DHT22;11911;50.768;13.150;2022-07-23T08:08:05;21.30;96.30
23477;DHT22;11911;50.768;13.150;2022-07-23T08:10:31;21.20;96.30
23477;DHT22;11911;50.768;13.150;2022-07-23T08:12:58;21.30;96.30
23477;DHT22;11911;50.768;13.150;2022-07-23T08:15:25;21.70;96.30
23477;DHT22;11911;50.768;13.150;2022-07-23T08:17:51;22.90;96.30
23477;DHT22;11911;50.768;13.150;2022-07-23T08:20:18;22.50;96.30
23477;DHT22;11911;50.768;13.150;2022-07-23T08:22:59;22.90;96.30
23477;DHT22;11911;50.768;13.150;2022-07-23T08:25:26;22.70;96.30
23477;DHT22;11911;50.768;13.150;2022-07-23T08:27:53;23.70;96.30
23477;DHT22;11911;50.768;13.150;2022-07-23T08:30:19;24.70;96.30
23477;DHT22;11911;50.768;13.150;2022-07-23T08:32:59;26.40;94.70
23477;DHT22;11911;50.768;13.150;2022-07-23T08:35:30;26.00;95.00
23477;DHT22;11911;50.768;13.150;2022-07-23T08:37:56;27.00;90.50
23477;DHT22;11911;50.768;13.150;2022-07-23T08:40:23;26.10;93.40
23477;DHT22;11911;50.768;13.150;2022-07-23T08:42:50;26.00;94.80
23477;DHT22;11911;50.768;13.150;2022-07-23T08:45:18;26.00;94.60
23477;DHT22;11911;50.768;13.150;2022-07-23T08:47:48;25.80;94.10
23477;DHT22;11911;50.768;13.150;2022-07-23T08:50:14;25.50;95.60
23477;DHT22;11911;50.768;13.150;2022-07-23T08:52:40;25.00;95.90
23477;DHT22;11911;50.768;13.150;2022-07-23T08:55:06;23.20;96.30
23477;DHT22;11911;50.768;13.150;2022-07-23T08:57:32;22.70;96.30
23477;DHT22;11911;50.768;13.150;2022-07-23T08:59:58;23.60;96.30
23477;DHT22;11911;50.768;13.150;2022-07-23T09:02:23;23.70;96.30
23477;DHT22;11911;50.768;13.150;2022-07-23T09:04:49;25.10;96.30
23477;DHT22;11911;50.768;13.150;2022-07-23T09:07:15;25.10;96.30
23477;DHT22;11911;50.768;13.150;2022-07-23T09:09:40;25.90;95.00
23477;DHT22;11911;50.768;13.150;2022-07-23T09:12:08;25.40;96.30
23477;DHT22;11911;50.768;13.150;2022-07-23T09:14:44;25.70;96.30
23477;DHT22;11911;50.768;13.150;2022-07-23T09:17:14;25.90;93.40
23477;DHT22;11911;50.768;13.150;2022-07-23T09:19:41;26.00;96.30
23477;DHT22;11911;50.768;13.150;2022-07-23T09:25:12;26.30;96.30
23477;DHT22;11911;50.768;13.150;2022-07-23T09:27:49;26.20;95.90
23477;DHT22;11911;50.768;13.150;2022-07-23T09:30:16;26.10;94.80
23477;DHT22;11911;50.768;13.150;2022-07-23T09:32:43;26.60;94.60
23477;DHT22;11911;50.768;13.150;2022-07-23T09:35:09;26.20;94.70
23477;DHT22;11911;50.768;13.150;2022-07-23T09:37:34;26.20;95.40
23477;DHT22;11911;50.768;13.150;2022-07-23T09:40:08;27.20;93.80
23477;DHT22;11911;50.768;13.150;2022-07-23T09:42:34;28.50;89.60
23477;DHT22;11911;50.768;13.150;2022-07-23T09:45:00;28.80;89.90
23477;DHT22;11911;50.768;13.150;2022-07-23T09:47:30;29.40;86.20
23477;DHT22;11911;50.768;13.150;2022-07-23T09:50:04;28.90;87.90
23477;DHT22;11911;50.768;13.150;2022-07-23T09:52:43;28.90;87.50
23477;DHT22;11911;50.768;13.150;2022-07-23T09:55:10;29.20;85.80
23477;DHT22;11911;50.768;13.150;2022-07-23T09:57:35;30.00;87.90
23477;DHT22;11911;50.768;13.150;2022-07-23T10:00:04;29.90;84.10
23477;DHT22;11911;50.768;13.150;2022-07-23T10:02:32;28.70;85.30
23477;DHT22;11911;50.768;13.150;2022-07-23T10:05:00;28.50;86.90
23477;DHT22;11911;50.768;13.150;2022-07-23T10:07:26;28.30;88.60
23477;DHT22;11911;50.768;13.150;2022-07-23T10:09:55;28.90;89.30
23477;DHT22;11911;50.768;13.150;2022-07-23T10:12:21;29.80;88.20
23477;DHT22;11911;50.768;13.150;2022-07-23T10:15:05;30.70;84.00
23477;DHT22;11911;50.768;13.150;2022-07-23T10:17:35;30.40;83.00
23477;DHT22;11911;50.768;13.150;2022-07-23T10:20:01;29.90;83.90
23477;DHT22;11911;50.768;13.150;2022-07-23T10:23:10;28.80;85.50
23477;DHT22;11911;50.768;13.150;2022-07-23T10:25:50;27.40;88.70
23477;DHT22;11911;50.768;13.150;2022-07-23T10:36:53;26.20;93.70
23477;DHT22;11911;50.768;13.150;2022-07-23T10:39:28;26.50;92.20
23477;DHT22;11911;50.768;13.150;2022-07-23T10:42:12;26.40;91.10
23477;DHT22;11911;50.768;13.150;2022-07-23T10:44:46;26.40;93.70
23477;DHT22;11911;50.768;13.150;2022-07-23T10:47:21;27.00;92.80
23477;DHT22;11911;50.768;13.150;2022-07-23T10:50:21;27.50;91.20
23477;DHT22;11911;50.768;13.150;2022-07-23T10:58:01;27.70;88.00
23477;DHT22;11911;50.768;13.150;2022-07-23T11:00:31;27.30;90.10
23477;DHT22;11911;50.768;13.150;2022-07-23T11:03:05;26.80;89.80
23477;DHT22;11911;50.768;13.150;2022-07-23T11:05:44;26.60;91.00
23477;DHT22;11911;50.768;13.150;2022-07-23T11:08:21;27.20;92.10
23477;DHT22;11911;50.768;13.150;2022-07-23T11:26:45;25.70;93.80
23477;DHT22;11911;50.768;13.150;2022-07-23T11:31:55;25.90;94.40
23477;DHT22;11911;50.768;13.150;2022-07-23T11:36:53;25.10;96.30
23477;DHT22;11911;50.768;13.150;2022-07-23T11:39:20;25.10;96.10
23477;DHT22;11911;50.768;13.150;2022-07-23T11:41:46;25.00;95.60
23477;DHT22;11911;50.768;13.150;2022-07-23T11:44:25;24.90;96.30
23477;DHT22;11911;50.768;13.150;2022-07-23T11:47:05;24.80;95.30
23477;DHT22;11911;50.768;13.150;2022-07-23T11:49:31;25.20;96.30
23477;DHT22;11911;50.768;13.150;2022-07-23T11:52:11;25.50;95.70
23477;DHT22;11911;50.768;13.150;2022-07-23T11:54:51;25.40;96.30
23477;DHT22;11911;50.768;13.150;2022-07-23T11:57:18;25.90;96.30
23477;DHT22;11911;50.768;13.150;2022-07-23T11:59:47;26.50;94.40
23477;DHT22;11911;50.768;13.150;2022-07-23T12:02:14;26.90;93.50
23477;DHT22;11911;50.768;13.150;2022-07-23T12:04:41;26.70;92.70
23477;DHT22;11911;50.768;13.150;2022-07-23T12:09:56;26.20;95.70
23477;DHT22;11911;50.768;13.150;2022-07-23T12:12:23;26.20;93.50
23477;DHT22;11911;50.768;13.150;2022-07-23T12:14:54;26.20;92.70
23477;DHT22;11911;50.768;13.150;2022-07-23T12:17:21;25.40;94.80
23477;DHT22;11911;50.768;13.150;2022-07-23T12:19:47;25.00;96.30
23477;DHT22;11911;50.768;13.150;2022-07-23T12:22:13;25.50;96.30
23477;DHT22;11911;50.768;13.150;2022-07-23T12:25:05;26.20;94.20
23477;DHT22;11911;50.768;13.150;2022-07-23T12:27:31;26.00;94.00
23477;DHT22;11911;50.768;13.150;2022-07-23T12:29:56;25.20;96.30
23477;DHT22;11911;50.768;13.150;2022-07-23T12:32:28;25.60;96.30
23477;DHT22;11911;50.768;13.150;2022-07-23T12:35:05;26.10;94.90
23477;DHT22;11911;50.768;13.150;2022-07-23T12:37:37;26.10;94.50
23477;DHT22;11911;50.768;13.150;2022-07-23T12:43:18;25.50;95.90
23477;DHT22;11911;50.768;13.150;2022-07-23T12:45:53;25.40;96.30
23477;DHT22;11911;50.768;13.150;2022-07-23T12:48:24;24.90;96.30
23477;DHT22;11911;50.768;13.150;2022-07-23T12:50:55;24.60;96.30
23477;DHT22;11911;50.768;13.150;2022-07-23T12:53:24;24.30;96.30
23477;DHT22;11911;50.768;13.150;2022-07-23T12:55:58;24.10;96.30
23477;DHT22;11911;50.768;13.150;2022-07-23T12:58:24;24.70;96.30
23477;DHT22;11911;50.768;13.150;2022-07-23T13:00:59;25.30;96.30
23477;DHT22;11911;50.768;13.150;2022-07-23T13:03:30;25.50;96.30
23477;DHT22;11911;50.768;13.150;2022-07-23T13:05:56;26.10;96.30
23477;DHT22;11911;50.768;13.150;2022-07-23T13:08:24;26.00;95.80
23477;DHT22;11911;50.768;13.150;2022-07-23T13:10:50;25.90;95.90
23477;DHT22;11911;50.768;13.150;2022-07-23T13:13:19;25.40;94.90
23477;DHT22;11911;50.768;13.150;2022-07-23T13:15:45;24.70;96.30
23477;DHT22;11911;50.768;13.150;2022-07-23T13:18:10;24.50;96.30
23477;DHT22;11911;50.768;13.150;2022-07-23T13:20:36;24.50;96.30
23477;DHT22;11911;50.768;13.150;2022-07-23T13:23:04;24.70;96.30
23477;DHT22;11911;50.768;13.150;2022-07-23T13:25:30;25.20;96.30
23477;DHT22;11911;50.768;13.150;2022-07-23T13:27:55;25.40;96.30
23477;DHT22;11911;50.768;13.150;2022-07-23T13:30:21;25.30;96.30
23477;DHT22;11911;50.768;13.150;2022-07-23T13:32:48;25.00;96.30
23477;DHT22;11911;50.768;13.150;2022-07-23T13:35:14;25.00;96.30
23477;DHT22;11911;50.768;13.150;2022-07-23T13:37:39;25.20;96.30
23477;DHT22;11911;50.768;13.150;2022-07-23T13:40:05;25.30;96.30
23477;DHT22;11911;50.768;13.150;2022-07-23T13:42:31;25.10;96.30
23477;DHT22;11911;50.768;13.150;2022-07-23T13:44:56;24.50;96.30
23477;DHT22;11911;50.768;13.150;2022-07-23T13:47:22;24.10;96.30
23477;DHT22;11911;50.768;13.150;2022-07-23T13:49:47;23.90;96.30
23477;DHT22;11911;50.768;13.150;2022-07-23T13:52:13;23.60;96.30
23477;DHT22;11911;50.768;13.150;2022-07-23T13:54:38;23.50;96.30
23477;DHT22;11911;50.768;13.150;2022-07-23T13:57:04;23.30;96.30
23477;DHT22;11911;50.768;13.150;2022-07-23T13:59:30;23.30;96.30
23477;DHT22;11911;50.768;13.150;2022-07-23T14:01:55;23.30;96.30
23477;DHT22;11911;50.768;13.150;2022-07-23T14:04:21;23.10;96.30
23477;DHT22;11911;50.768;13.150;2022-07-23T14:06:47;23.10;96.30
23477;DHT22;11911;50.768;13.150;2022-07-23T14:09:12;23.10;96.30
23477;DHT22;11911;50.768;13.150;2022-07-23T14:11:38;22.80;96.30
23477;DHT22;11911;50.768;13.150;2022-07-23T14:14:05;23.10;96.30
23477;DHT22;11911;50.768;13.150;2022-07-23T14:16:30;24.00;96.30
23477;DHT22;11911;50.768;13.150;2022-07-23T14:18:56;24.60;96.30
23477;DHT22;11911;50.768;13.150;2022-07-23T14:21:21;24.60;96.30
23477;DHT22;11911;50.768;13.150;2022-07-23T14:23:47;24.30;96.30
23477;DHT22;11911;50.768;13.150;2022-07-23T14:26:12;24.70;96.30
23477;DHT22;11911;50.768;13.150;2022-07-23T14:28:38;24.50;96.30
23477;DHT22;11911;50.768;13.150;2022-07-23T14:31:03;24.70;96.30
23477;DHT22;11911;50.768;13.150;2022-07-23T14:33:29;25.00;96.30
23477;DHT22;11911;50.768;13.150;2022-07-23T14:35:54;25.30;96.30
23477;DHT22;11911;50.768;13.150;2022-07-23T14:38:20;24.50;96.30
23477;DHT22;11911;50.768;13.150;2022-07-23T14:40:45;24.70;96.30
23477;DHT22;11911;50.768;13.150;2022-07-23T14:43:11;25.20;96.30
23477;DHT22;11911;50.768;13.150;2022-07-23T14:45:36;24.70;96.30
23477;DHT22;11911;50.768;13.150;2022-07-23T14:48:02;24.30;96.30
23477;DHT22;11911;50.768;13.150;2022-07-23T14:50:28;24.30;96.30
23477;DHT22;11911;50.768;13.150;2022-07-23T14:52:54;24.40;96.30
23477;DHT22;11911;50.768;13.150;2022-07-23T14:55:19;24.50;96.30
23477;DHT22;11911;50.768;13.150;2022-07-23T14:57:45;24.40;96.30
23477;DHT22;11911;50.768;13.150;2022-07-23T15:00:11;24.50;96.30
23477;DHT22;11911;50.768;13.150;2022-07-23T15:02:37;25.10;96.30
23477;DHT22;11911;50.768;13.150;2022-07-23T15:05:02;25.40;96.30
23477;DHT22;11911;50.768;13.150;2022-07-23T15:07:28;25.70;96.30
23477;DHT22;11911;50.768;13.150;2022-07-23T15:09:58;25.40;96.20
23477;DHT22;11911;50.768;13.150;2022-07-23T15:12:23;24.60;96.30
23477;DHT22;11911;50.768;13.150;2022-07-23T15:14:49;23.70;96.30
23477;DHT22;11911;50.768;13.150;2022-07-23T15:17:14;23.30;96.30
23477;DHT22;11911;50.768;13.150;2022-07-23T15:19:40;23.00;96.30
23477;DHT22;11911;50.768;13.150;2022-07-23T15:22:06;22.70;96.30
23477;DHT22;11911;50.768;13.150;2022-07-23T15:24:31;22.60;96.30
23477;DHT22;11911;50.768;13.150;2022-07-23T15:26:57;22.50;96.30
23477;DHT22;11911;50.768;13.150;2022-07-23T15:29:22;22.50;96.30
23477;DHT22;11911;50.768;13.150;2022-07-23T15:31:48;22.50;96.30
23477;DHT22;11911;50.768;13.150;2022-07-23T15:34:14;22.70;96.30
23477;DHT22;11911;50.768;13.150;2022-07-23T15:36:39;22.70;96.30
23477;DHT22;11911;50.768;13.150;2022-07-23T15:39:05;22.70;96.30
23477;DHT22;11911;50.768;13.150;2022-07-23T15:41:31;22.80;96.30
23477;DHT22;11911;50.768;13.150;2022-07-23T15:43:56;23.10;96.30
23477;DHT22;11911;50.768;13.150;2022-07-23T15:46:22;23.50;96.30
23477;DHT22;11911;50.768;13.150;2022-07-23T15:48:49;24.30;96.30
23477;DHT22;11911;50.768;13.150;2022-07-23T15:51:14;24.00;96.30
23477;DHT22;11911;50.768;13.150;2022-07-23T15:53:41;24.00;96.30
23477;DHT22;11911;50.768;13.150;2022-07-23T15:56:07;23.80;96.30
23477;DHT22;11911;50.768;13.150;2022-07-23T15:58:34;23.80;96.30
23477;DHT22;11911;50.768;13.150;2022-07-23T16:00:59;23.50;96.30
23477;DHT22;11911;50.768;13.150;2022-07-23T16:03:29;23.30;96.30
23477;DHT22;11911;50.768;13.150;2022-07-23T16:05:54;23.20;96.30
23477;DHT22;11911;50.768;13.150;2022-07-23T16:08:20;23.20;96.30
23477;DHT22;11911;50.768;13.150;2022-07-23T16:10:45;23.00;96.30
23477;DHT22;11911;50.768;13.150;2022-07-23T16:13:11;23.30;96.30
23477;DHT22;11911;50.768;13.150;2022-07-23T16:15:37;23.40;96.30
23477;DHT22;11911;50.768;13.150;2022-07-23T16:18:02;23.50;96.30
23477;DHT22;11911;50.768;13.150;2022-07-23T16:20:28;23.50;96.30
23477;DHT22;11911;50.768;13.150;2022-07-23T16:28:05;23.70;96.30
23477;DHT22;11911;50.768;13.150;2022-07-23T16:30:31;23.60;96.30
23477;DHT22;11911;50.768;13.150;2022-07-23T16:32:57;23.60;96.30
23477;DHT22;11911;50.768;13.150;2022-07-23T16:35:23;23.40;96.30
23477;DHT22;11911;50.768;13.150;2022-07-23T16:37:48;23.40;96.30
23477;DHT22;11911;50.768;13.150;2022-07-23T16:40:14;23.40;96.30
23477;DHT22;11911;50.768;13.150;2022-07-23T16:42:40;23.50;96.30
23477;DHT22;11911;50.768;13.150;2022-07-23T16:45:06;23.50;96.30
23477;DHT22;11911;50.768;13.150;2022-07-23T16:47:31;23.40;96.30
23477;DHT22;11911;50.768;13.150;2022-07-23T16:49:57;23.60;96.30
23477;DHT22;11911;50.768;13.150;2022-07-23T16:52:22;23.60;96.30
23477;DHT22;11911;50.768;13.150;2022-07-23T16:54:48;23.40;96.30
23477;DHT22;11911;50.768;13.150;2022-07-23T16:57:14;23.40;96.30
23477;DHT22;11911;50.768;13.150;2022-07-23T16:59:39;23.30;96.30
23477;DHT22;11911;50.768;13.150;2022-07-23T17:02:05;23.10;96.30
23477;DHT22;11911;50.768;13.150;2022-07-23T17:04:30;23.00;96.30
23477;DHT22;11911;50.768;13.150;2022-07-23T17:06:56;23.10;96.30
23477;DHT22;11911;50.768;13.150;2022-07-23T17:09:22;23.00;96.30
23477;DHT22;11911;50.768;13.150;2022-07-23T17:11:48;23.00;96.30
23477;DHT22;11911;50.768;13.150;2022-07-23T17:14:13;23.00;96.30
23477;DHT22;11911;50.768;13.150;2022-07-23T17:16:39;23.10;96.30
23477;DHT22;11911;50.768;13.150;2022-07-23T17:19:04;22.80;96.30
23477;DHT22;11911;50.768;13.150;2022-07-23T17:21:30;22.90;96.30
23477;DHT22;11911;50.768;13.150;2022-07-23T17:23:56;22.90;96.30
23477;DHT22;11911;50.768;13.150;2022-07-23T17:26:22;22.80;96.30
23477;DHT22;11911;50.768;13.150;2022-07-23T17:28:47;22.80;96.30
23477;DHT22;11911;50.768;13.150;2022-07-23T17:31:13;22.60;96.30
23477;DHT22;11911;50.768;13.150;2022-07-23T17:33:39;22.40;96.30
23477;DHT22;11911;50.768;13.150;2022-07-23T17:36:04;22.10;96.30
23477;DHT22;11911;50.768;13.150;2022-07-23T17:38:30;22.10;96.30
23477;DHT22;11911;50.768;13.150;2022-07-23T17:40:56;22.10;96.30
23477;DHT22;11911;50.768;13.150;2022-07-23T17:43:21;22.00;96.30
23477;DHT22;11911;50.768;13.150;2022-07-23T17:45:47;21.90;96.30
23477;DHT22;11911;50.768;13.150;2022-07-23T17:48:12;21.90;96.30
23477;DHT22;11911;50.768;13.150;2022-07-23T17:50:39;21.80;96.30
23477;DHT22;11911;50.768;13.150;2022-07-23T17:53:04;21.70;96.30
23477;DHT22;11911;50.768;13.150;2022-07-23T17:55:30;21.80;96.30
23477;DHT22;11911;50.768;13.150;2022-07-23T17:57:56;21.70;96.30
23477;DHT22;11911;50.768;13.150;2022-07-23T18:00:29;21.60;96.30
23477;DHT22;11911;50.768;13.150;2022-07-23T18:02:55;21.50;96.30
23477;DHT22;11911;50.768;13.150;2022-07-23T18:05:21;21.50;96.30
23477;DHT22;11911;50.768;13.150;2022-07-23T18:07:47;21.40;96.30
23477;DHT22;11911;50.768;13.150;2022-07-23T18:10:12;21.30;96.30
23477;DHT22;11911;50.768;13.150;2022-07-23T18:12:39;21.20;96.30
23477;DHT22;11911;50.768;13.150;2022-07-23T18:15:05;21.10;96.30
23477;DHT22;11911;50.768;13.150;2022-07-23T18:17:31;21.00;96.30
23477;DHT22;11911;50.768;13.150;2022-07-23T18:19:57;20.90;96.30
23477;DHT22;11911;50.768;13.150;2022-07-23T18:22:23;20.90;96.30
23477;DHT22;11911;50.768;13.150;2022-07-23T18:24:48;20.80;96.30
23477;DHT22;11911;50.768;13.150;2022-07-23T18:27:14;20.80;96.30
23477;DHT22;11911;50.768;13.150;2022-07-23T18:29:39;20.60;96.30
23477;DHT22;11911;50.768;13.150;2022-07-23T18:32:05;20.50;96.30
23477;DHT22;11911;50.768;13.150;2022-07-23T18:34:31;20.30;96.30
23477;DHT22;11911;50.768;13.150;2022-07-23T18:36:56;20.00;96.30
23477;DHT22;11911;50.768;13.150;2022-07-23T18:39:22;19.70;96.30
23477;DHT22;11911;50.768;13.150;2022-07-23T18:41:48;19.40;96.30
23477;DHT22;11911;50.768;13.150;2022-07-23T18:44:13;19.20;96.30
23477;DHT22;11911;50.768;13.150;2022-07-23T18:46:40;19.00;96.30
23477;DHT22;11911;50.768;13.150;2022-07-23T18:49:06;18.80;96.30
23477;DHT22;11911;50.768;13.150;2022-07-23T18:51:32;18.70;96.30
23477;DHT22;11911;50.768;13.150;2022-07-23T18:53:57;18.50;96.30
23477;DHT22;11911;50.768;13.150;2022-07-23T18:56:23;18.40;96.30
23477;DHT22;11911;50.768;13.150;2022-07-23T18:58:48;18.20;96.30
23477;DHT22;11911;50.768;13.150;2022-07-23T19:01:14;18.10;96.30
23477;DHT22;11911;50.768;13.150;2022-07-23T19:03:40;18.00;96.30
23477;DHT22;11911;50.768;13.150;2022-07-23T19:06:05;17.90;96.30
23477;DHT22;11911;50.768;13.150;2022-07-23T19:08:32;17.80;96.30
23477;DHT22;11911;50.768;13.150;2022-07-23T19:10:58;17.60;96.30
23477;DHT22;11911;50.768;13.150;2022-07-23T19:13:24;17.50;96.30
23477;DHT22;11911;50.768;13.150;2022-07-23T19:15:51;17.40;96.30
23477;DHT22;11911;50.768;13.150;2022-07-23T19:18:17;17.30;96.30
23477;DHT22;11911;50.768;13.150;2022-07-23T19:20:42;17.20;96.30
23477;DHT22;11911;50.768;13.150;2022-07-23T19:23:08;17.10;96.30
23477;DHT22;11911;50.768;13.150;2022-07-23T19:25:34;17.00;96.30
23477;DHT22;11911;50.768;13.150;2022-07-23T19:27:59;16.90;96.30
23477;DHT22;11911;50.768;13.150;2022-07-23T19:30:25;16.80;96.30
23477;DHT22;11911;50.768;13.150;2022-07-23T19:32:50;16.70;96.30
23477;DHT22;11911;50.768;13.150;2022-07-23T19:35:16;16.70;96.30
23477;DHT22;11911;50.768;13.150;2022-07-23T19:37:42;16.60;96.30
23477;DHT22;11911;50.768;13.150;2022-07-23T19:40:08;16.60;96.30
23477;DHT22;11911;50.768;13.150;2022-07-23T19:42:34;16.50;96.30
23477;DHT22;11911;50.768;13.150;2022-07-23T19:45:00;16.50;96.30
23477;DHT22;11911;50.768;13.150;2022-07-23T19:47:25;16.40;96.30
23477;DHT22;11911;50.768;13.150;2022-07-23T19:49:51;16.40;96.30
23477;DHT22;11911;50.768;13.150;2022-07-23T19:52:16;16.30;96.30
23477;DHT22;11911;50.768;13.150;2022-07-23T19:54:42;16.30;96.30
23477;DHT22;11911;50.768;13.150;2022-07-23T19:57:07;16.20;96.30
23477;DHT22;11911;50.768;13.150;2022-07-23T19:59:33;16.30;96.30
23477;DHT22;11911;50.768;13.150;2022-07-23T20:01:58;16.30;96.30